Woodbine, Iowa
Current Conditions -  °F | °C
As of 8:15 AM on Friday 31 Oct 2014 (Local Time) from KHNR Reporting Station
Clear Clear  
Wind Chill: 15°   Ceiling: Unl
Heat Index: 25°   Visibility: 10mi
Dew Point: 23°   Wind: 9mph
Humidity: 93%   Direction: 330°NNW
Pressure: 30.55"   Gusts: NA
Location:  41.74°N, 95.7°W
Report Text: KHNR 311315Z AUTO 33008KT 10SM CLR M04/M05 A3055 RMK AO2
Loading
Personal Weather Stations






























Interactive Weather Map
Tropical Storm Tracking
New forecast layout! Learn more

10-Day Weather Forecast

Advertisements
Track Severe Weather on mobile